Time;durP1;ratioP1;P1;durP2;ratioP2;P2;SDS_P1;SDS_P2;PMS_P1;PMS_P2;Temp;Humidity;BMP_temperature;BMP_pressure;BME280_temperature;BME280_humidity;BME280_pressure;Samples;Min_cycle;Max_cycle;Signal;HPM_P1;HPM_P2
2023/04/25 00:02:20;;;;;;;;;6.00;3.67;;;;;12.33;62.05;100746.69;5085405;27;45470;-75
2023/04/25 00:04:48;;;;;;;;;5.00;4.33;;;;;9.99;62.08;100348.69;5077214;27;46520;-74
2023/04/25 00:07:14;;;;;;;;;5.00;5.00;;;;;12.21;62.73;100725.75;5094187;27;45574;-74
2023/04/25 00:09:39;;;;;;;;;6.00;6.00;;;;;11.93;63.25;100690.41;5093276;27;45452;-72
2023/04/25 00:12:05;;;;;;;;;5.67;5.00;;;;;12.19;63.24;100728.59;5088151;27;45531;-74
2023/04/25 00:14:33;;;;;;;;;5.67;5.67;;;;;11.60;63.51;100647.47;5077731;27;45704;-73
2023/04/25 00:16:58;;;;;;;;;4.33;4.00;;;;;11.97;63.61;100707.75;5077517;27;45584;-74
2023/04/25 00:19:24;;;;;;;;;5.00;5.00;;;;;11.80;63.88;100691.63;5095829;27;45468;-72
2023/04/25 00:21:50;;;;;;;;;6.00;6.00;;;;;10.90;63.60;100554.16;5089841;27;45358;-72
2023/04/25 00:24:15;;;;;;;;;4.33;4.33;;;;;11.88;63.31;100721.00;5093600;27;45612;-75
2023/04/25 00:26:40;;;;;;;;;8.33;7.00;;;;;11.67;63.25;100696.47;5076886;27;45443;-74
2023/04/25 00:29:06;;;;;;;;;4.33;4.33;;;;;11.75;63.65;100709.03;5077101;27;45298;-74
2023/04/25 00:31:31;;;;;;;;;7.00;4.00;;;;;11.64;63.56;100696.78;5077422;27;45542;-74
2023/04/25 00:33:56;;;;;;;;;7.00;7.00;;;;;11.26;64.25;100656.16;5076853;27;45933;-76
2023/04/25 00:36:22;;;;;;;;;4.67;4.67;;;;;11.62;64.41;100708.59;5093741;27;45267;-71
2023/04/25 00:38:47;;;;;;;;;4.33;4.33;;;;;11.25;64.50;100659.81;5076679;27;45533;-74
2023/04/25 00:41:13;;;;;;;;;6.00;4.00;;;;;11.64;64.50;100722.59;5076847;27;45517;-73
2023/04/25 00:43:39;;;;;;;;;6.67;5.67;;;;;11.59;64.85;100715.03;5076569;27;46423;-73
2023/04/25 00:46:05;;;;;;;;;6.00;6.00;;;;;11.63;64.54;100732.41;5076596;27;45252;-74
2023/04/25 00:48:30;;;;;;;;;6.67;6.67;;;;;10.90;64.76;100601.22;5093099;27;45373;-75
2023/04/25 00:50:59;;;;;;;;;6.00;6.00;;;;;11.17;64.49;100662.34;5107881;27;45503;-76
2023/04/25 00:53:27;;;;;;;;;5.67;4.00;;;;;11.07;64.72;100642.13;5081831;27;46529;-74
2023/04/25 00:55:53;;;;;;;;;4.00;4.00;;;;;11.47;64.78;100705.59;5104941;27;45255;-73
2023/04/25 00:58:20;;;;;;;;;5.67;4.33;;;;;11.51;64.38;100725.59;5098632;27;45449;-74
2023/04/25 01:00:47;;;;;;;;;6.00;5.00;;;;;10.11;64.35;100499.91;5079010;27;45359;-73
2023/04/25 01:03:17;;;;;;;;;6.67;5.33;;;;;11.49;64.12;100746.22;5091747;27;46439;-73
2023/04/25 01:05:43;;;;;;;;;6.00;5.00;;;;;11.50;64.30;100719.44;5099627;27;45250;-75
2023/04/25 01:08:08;;;;;;;;;7.00;5.67;;;;;11.09;64.47;100656.13;5100242;27;45323;-74
2023/04/25 01:10:34;;;;;;;;;4.00;3.33;;;;;11.61;63.94;100725.53;5090522;27;45547;-75
2023/04/25 01:12:59;;;;;;;;;7.33;6.00;;;;;11.44;64.08;100695.25;5087834;27;47481;-73
2023/04/25 01:15:25;;;;;;;;;8.33;8.00;;;;;10.23;64.24;100493.44;5084932;27;45669;-75
2023/04/25 01:17:50;;;;;;;;;8.67;7.00;;;;;11.54;63.88;100712.00;5111979;27;45575;-74
2023/04/25 01:20:16;;;;;;;;;7.33;4.00;;;;;11.66;64.22;100726.78;5108766;27;45276;-74
2023/04/25 01:22:42;;;;;;;;;6.33;6.33;;;;;11.18;64.88;100645.41;5100061;27;46371;-75
2023/04/25 01:25:10;;;;;;;;;11.00;6.67;;;;;10.95;64.64;100590.94;5099391;27;45343;-73
2023/04/25 01:27:36;;;;;;;;;6.00;6.00;;;;;11.74;64.71;100718.84;5099913;27;45476;-74
2023/04/25 01:30:03;;;;;;;;;7.67;7.67;;;;;11.69;64.63;100704.31;5100029;27;45324;-71
2023/04/25 01:32:37;;;;;;;;;10.00;7.67;;;;;11.77;64.87;100723.03;5099360;27;46026;-73
2023/04/25 01:35:03;;;;;;;;;10.00;8.67;;;;;11.73;65.20;100716.34;5091508;27;46233;-75
2023/04/25 01:37:29;;;;;;;;;7.33;7.00;;;;;11.67;64.56;100725.78;5082585;27;45608;-74
2023/04/25 01:39:54;;;;;;;;;8.00;8.00;;;;;11.39;65.08;100682.38;5099846;27;45208;-76
2023/04/25 01:42:19;;;;;;;;;10.00;6.67;;;;;11.48;65.03;100707.28;5099297;27;46340;-74
2023/04/25 01:44:45;;;;;;;;;7.33;7.33;;;;;10.79;64.64;100593.44;5099779;27;45151;-72
2023/04/25 01:47:11;;;;;;;;;8.67;8.00;;;;;11.53;65.08;100731.63;5101071;27;45193;-73
2023/04/25 01:49:36;;;;;;;;;7.67;7.67;;;;;11.25;65.14;100683.75;5107334;27;45406;-73
2023/04/25 01:52:01;;;;;;;;;6.00;6.00;;;;;11.50;65.80;100721.28;5098807;27;45573;-72
2023/04/25 01:54:27;;;;;;;;;8.67;6.00;;;;;11.49;64.83;100735.56;5109976;27;45286;-73
2023/04/25 01:56:52;;;;;;;;;7.00;7.00;;;;;11.47;65.32;100717.09;5111845;27;45414;-74
2023/04/25 01:59:20;;;;;;;;;7.67;7.67;;;;;10.86;65.05;100621.13;5121634;27;45403;-75
2023/04/25 02:01:45;;;;;;;;;7.33;7.33;;;;;11.11;64.62;100664.78;5123273;27;46599;-74
2023/04/25 02:04:10;;;;;;;;;13.67;6.00;;;;;11.31;64.82;100692.13;5116235;27;45560;-74
2023/04/25 02:06:36;;;;;;;;;11.33;8.67;;;;;11.35;64.72;100693.47;5099664;27;45697;-74
2023/04/25 02:09:01;;;;;;;;;9.67;8.33;;;;;11.59;65.03;100741.66;5096139;27;45430;-75
2023/04/25 02:11:26;;;;;;;;;8.33;8.00;;;;;11.50;64.96;100710.63;5112372;27;45473;-74
2023/04/25 02:13:51;;;;;;;;;7.00;7.00;;;;;11.48;64.81;100712.59;5100302;27;45618;-73
2023/04/25 02:16:17;;;;;;;;;10.33;8.00;;;;;11.43;64.47;100714.88;5116487;27;45456;-72
2023/04/25 02:18:44;;;;;;;;;8.67;7.33;;;;;11.53;64.95;100721.81;5108006;27;45218;-73
2023/04/25 02:21:11;;;;;;;;;9.00;9.00;;;;;11.51;64.52;100725.59;5088346;27;45817;-73
2023/04/25 02:23:36;;;;;;;;;8.00;8.00;;;;;11.35;64.51;100706.78;5101104;27;45275;-73
2023/04/25 02:26:02;;;;;;;;;7.67;7.67;;;;;11.33;64.65;100714.94;5099023;27;45271;-72
2023/04/25 02:28:27;;;;;;;;;9.67;9.00;;;;;10.83;64.67;100632.06;5099830;27;45517;-78
2023/04/25 02:30:52;;;;;;;;;13.00;9.00;;;;;11.39;64.64;100713.47;5098786;27;46391;-73
2023/04/25 02:33:18;;;;;;;;;7.00;6.67;;;;;11.35;64.84;100704.13;5113934;27;45707;-74
2023/04/25 02:35:43;;;;;;;;;8.00;6.67;;;;;11.55;64.48;100734.97;5108394;27;45502;-74
2023/04/25 02:38:09;;;;;;;;;9.33;9.33;;;;;11.48;64.47;100723.25;5113041;27;45446;-74
2023/04/25 02:40:34;;;;;;;;;10.00;7.67;;;;;11.23;64.81;100683.06;5082459;27;48027;-73
2023/04/25 02:42:59;;;;;;;;;8.67;8.67;;;;;11.50;64.67;100723.94;5098897;27;45477;-74
2023/04/25 02:45:25;;;;;;;;;8.67;7.00;;;;;11.35;64.51;100701.47;5096279;27;47578;-76
2023/04/25 02:47:50;;;;;;;;;9.67;8.00;;;;;11.13;64.76;100665.47;5099828;27;45403;-76
2023/04/25 02:50:15;;;;;;;;;10.33;9.33;;;;;11.45;64.97;100734.19;5085648;27;46579;-73
2023/04/25 02:52:41;;;;;;;;;10.33;8.00;;;;;10.79;64.66;100630.66;5096972;27;45645;-74
2023/04/25 02:55:06;;;;;;;;;9.67;8.67;;;;;11.58;64.38;100746.16;5080010;27;49488;-72
2023/04/25 02:57:32;;;;;;;;;15.67;13.00;;;;;11.48;64.23;100749.88;5106543;27;45411;-74
2023/04/25 02:59:57;;;;;;;;;13.00;12.00;;;;;11.33;64.95;100746.03;5098654;27;45769;-72
2023/04/25 03:02:22;;;;;;;;;14.33;10.00;;;;;11.22;64.93;100742.59;5098345;27;45299;-74
2023/04/25 03:04:48;;;;;;;;;11.00;9.67;;;;;10.59;64.93;100622.78;5097899;27;57474;-74
2023/04/25 03:07:13;;;;;;;;;11.00;10.00;;;;;11.28;65.17;100728.69;5098171;27;45212;-72
2023/04/25 03:09:38;;;;;;;;;12.00;11.00;;;;;10.62;65.30;100614.53;5105571;27;46354;-73
2023/04/25 03:12:04;;;;;;;;;16.00;12.00;;;;;11.24;64.62;100735.31;5098336;27;45457;-73
2023/04/25 03:14:29;;;;;;;;;10.33;10.33;;;;;8.79;64.81;100326.59;5094384;27;45324;-73
2023/04/25 03:16:55;;;;;;;;;10.33;7.67;;;;;11.33;65.28;100741.53;5100723;27;45509;-72
2023/04/25 03:19:20;;;;;;;;;12.00;10.00;;;;;11.39;64.81;100740.09;5097871;27;46382;-73
2023/04/25 03:21:45;;;;;;;;;8.00;8.00;;;;;11.40;65.03;100747.09;5097585;27;45560;-72
2023/04/25 03:24:11;;;;;;;;;9.00;9.00;;;;;11.27;65.42;100732.34;5081971;27;45597;-75
2023/04/25 03:26:37;;;;;;;;;10.67;10.00;;;;;11.10;64.98;100705.69;5104052;27;45533;-74
2023/04/25 03:29:02;;;;;;;;;14.67;10.00;;;;;11.30;65.10;100749.84;5097489;27;47190;-73
2023/04/25 03:31:28;;;;;;;;;9.67;9.67;;;;;11.15;65.20;100720.22;5094411;27;45828;-73
2023/04/25 03:33:53;;;;;;;;;9.67;9.00;;;;;11.03;65.56;100701.94;5096161;27;45284;-72
2023/04/25 03:36:18;;;;;;;;;13.67;12.00;;;;;10.68;65.59;100638.84;5098187;27;45418;-73
2023/04/25 03:38:44;;;;;;;;;12.00;11.00;;;;;10.87;65.53;100668.00;5097228;27;46548;-74
2023/04/25 03:41:09;;;;;;;;;10.33;9.00;;;;;11.02;65.12;100706.44;5106974;27;45525;-74
2023/04/25 03:43:34;;;;;;;;;14.00;9.33;;;;;11.10;65.55;100730.47;5104693;27;45470;-71
2023/04/25 03:46:01;;;;;;;;;11.33;9.00;;;;;11.17;65.62;100747.50;5105927;27;45737;-77
2023/04/25 03:48:27;;;;;;;;;12.67;11.33;;;;;11.02;65.29;100733.03;5109657;27;46095;-72
2023/04/25 03:50:53;;;;;;;;;11.00;11.00;;;;;10.43;65.34;100627.91;5110459;27;45507;-72
2023/04/25 03:53:18;;;;;;;;;9.00;8.33;;;;;10.75;65.62;100693.09;5116417;27;45499;-72
2023/04/25 03:55:44;;;;;;;;;10.67;8.33;;;;;10.27;65.72;100620.53;5098026;27;45295;-73
2023/04/25 03:58:09;;;;;;;;;10.67;9.00;;;;;10.60;65.56;100674.97;5085637;27;47469;-75
2023/04/25 04:00:35;;;;;;;;;15.00;11.00;;;;;10.91;66.38;100731.38;5101420;27;45190;-76
2023/04/25 04:03:01;;;;;;;;;11.00;10.00;;;;;10.31;65.97;100626.41;5102245;27;45556;-75
2023/04/25 04:05:27;;;;;;;;;11.00;10.00;;;;;10.98;65.98;100760.88;5097052;27;45422;-74
2023/04/25 04:07:52;;;;;;;;;16.00;14.00;;;;;11.01;66.23;100749.94;5097460;27;46353;-72
2023/04/25 04:10:18;;;;;;;;;9.33;9.33;;;;;10.93;66.37;100739.22;5098244;27;45350;-73
2023/04/25 04:12:43;;;;;;;;;12.33;11.00;;;;;11.03;66.73;100750.69;5089219;27;45396;-72
2023/04/25 04:15:09;;;;;;;;;12.00;10.67;;;;;10.79;66.19;100721.06;5097612;27;45331;-74
2023/04/25 04:17:35;;;;;;;;;9.33;9.33;;;;;10.66;65.89;100694.81;5096873;27;46349;-73
2023/04/25 04:20:00;;;;;;;;;11.33;11.00;;;;;10.85;66.05;100721.34;5096775;27;45326;-73
2023/04/25 04:22:25;;;;;;;;;14.00;13.00;;;;;10.66;65.97;100694.81;5113050;27;45520;-74
2023/04/25 04:24:51;;;;;;;;;11.33;11.33;;;;;10.10;66.00;100607.13;5109401;27;45604;-73
2023/04/25 04:27:19;;;;;;;;;11.67;10.33;;;;;10.23;66.27;100643.06;5086737;27;48509;-73
2023/04/25 04:29:45;;;;;;;;;8.67;8.67;;;;;10.39;65.94;100653.06;5096653;27;45311;-74
2023/04/25 04:32:10;;;;;;;;;15.33;12.67;;;;;10.82;65.88;100742.09;5085554;27;45269;-75
2023/04/25 04:34:35;;;;;;;;;11.33;10.33;;;;;10.63;65.74;100711.91;5095425;27;45242;-75
2023/04/25 04:37:01;;;;;;;;;12.33;12.33;;;;;10.73;65.92;100737.63;5096534;27;46271;-74
2023/04/25 04:39:27;;;;;;;;;16.67;12.33;;;;;10.75;66.07;100740.97;5096007;27;45319;-73
2023/04/25 04:41:52;;;;;;;;;16.33;12.00;;;;;10.11;65.97;100641.53;5105511;27;45407;-73
2023/04/25 04:44:17;;;;;;;;;9.33;7.33;;;;;10.56;66.37;100708.13;5097637;27;44939;-73
2023/04/25 04:46:44;;;;;;;;;12.00;11.00;;;;;10.33;65.84;100667.78;5078510;27;47087;-74
2023/04/25 04:49:09;;;;;;;;;10.33;9.33;;;;;10.80;65.99;100749.34;5092877;27;45526;-73
2023/04/25 04:51:36;;;;;;;;;13.00;12.33;;;;;10.99;65.91;100799.81;5096765;27;45265;-73
2023/04/25 04:54:02;;;;;;;;;16.33;14.67;;;;;10.89;66.38;100786.56;5100349;27;45665;-73
2023/04/25 04:56:31;;;;;;;;;12.67;12.00;;;;;11.00;66.18;100792.66;5100063;27;45474;-74
2023/04/25 04:58:57;;;;;;;;;13.00;12.33;;;;;10.78;66.30;100767.25;5100603;27;45348;-72
2023/04/25 05:01:23;;;;;;;;;13.33;11.33;;;;;11.06;66.28;100806.25;5094978;27;45365;-76
2023/04/25 05:03:49;;;;;;;;;14.00;11.67;;;;;10.87;65.52;100777.06;5084570;27;45479;-74
2023/04/25 05:06:14;;;;;;;;;13.33;12.67;;;;;11.07;66.09;100823.88;5106341;27;45635;-72
2023/04/25 05:08:39;;;;;;;;;12.33;11.33;;;;;10.80;65.97;100781.25;5081684;27;45910;-74
2023/04/25 05:11:05;;;;;;;;;12.00;12.00;;;;;10.61;65.98;100751.09;5084879;27;45445;-76
2023/04/25 05:13:30;;;;;;;;;11.00;10.33;;;;;10.94;66.08;100802.06;5113662;27;45258;-73
2023/04/25 05:15:55;;;;;;;;;12.67;11.67;;;;;10.96;65.69;100795.63;5092251;27;47835;-74
2023/04/25 05:18:20;;;;;;;;;15.33;12.33;;;;;10.59;65.84;100753.03;5114468;27;48301;-72
2023/04/25 05:20:46;;;;;;;;;15.67;14.33;;;;;10.96;65.75;100803.59;5100319;27;45366;-72
2023/04/25 05:23:11;;;;;;;;;14.67;14.67;;;;;10.45;65.98;100718.97;5093078;27;45320;-74
2023/04/25 05:25:37;;;;;;;;;15.67;11.33;;;;;11.03;66.03;100817.19;5119948;27;45393;-74
2023/04/25 05:28:02;;;;;;;;;15.00;12.00;;;;;10.84;65.79;100799.47;5108721;27;45465;-75
2023/04/25 05:30:27;;;;;;;;;16.00;15.00;;;;;11.18;65.96;100837.00;5115321;27;45324;-75
2023/04/25 05:32:53;;;;;;;;;12.00;10.33;;;;;11.20;65.78;100829.69;5109718;27;45321;-73
2023/04/25 05:35:18;;;;;;;;;15.00;15.00;;;;;10.53;65.33;100740.34;5113480;27;46420;-74
2023/04/25 05:37:43;;;;;;;;;18.00;15.00;;;;;10.95;66.21;100833.00;5101385;27;45250;-76
2023/04/25 05:40:09;;;;;;;;;12.67;9.67;;;;;10.35;65.98;100726.09;5116037;27;45230;-74
2023/04/25 05:42:35;;;;;;;;;15.33;14.00;;;;;11.23;65.68;100869.34;5097451;27;45459;-76
2023/04/25 05:45:00;;;;;;;;;18.50;15.00;;;;;10.82;65.72;100811.22;5098335;27;47509;-74
2023/04/25 05:47:26;;;;;;;;;17.67;17.33;;;;;11.30;65.68;100884.72;5111495;27;45158;-73
2023/04/25 05:49:51;;;;;;;;;15.33;13.33;;;;;10.90;65.62;100822.81;5091599;27;45541;-77
2023/04/25 05:52:17;;;;;;;;;19.33;15.00;;;;;10.25;65.59;100731.44;5113597;27;45149;-75
2023/04/25 05:54:42;;;;;;;;;17.00;16.00;;;;;11.15;66.18;100877.22;5104238;27;45257;-76
2023/04/25 05:57:07;;;;;;;;;16.67;14.00;;;;;10.78;65.79;100817.78;5089658;27;45489;-74
2023/04/25 05:59:32;;;;;;;;;16.00;14.33;;;;;11.24;65.85;100902.97;5099431;27;45561;-75
2023/04/25 06:01:58;;;;;;;;;16.00;15.00;;;;;10.95;66.43;100860.44;5098957;27;45506;-74
2023/04/25 06:04:23;;;;;;;;;18.67;18.00;;;;;11.22;66.47;100904.09;5107992;27;46249;-76
2023/04/25 06:06:49;;;;;;;;;17.00;17.00;;;;;11.02;66.03;100874.03;5116976;27;45474;-74
2023/04/25 06:09:14;;;;;;;;;19.00;16.67;;;;;10.50;66.61;100806.25;5100168;27;45437;-74
2023/04/25 06:11:39;;;;;;;;;18.67;17.67;;;;;11.18;65.78;100916.00;5117512;27;45594;-74
2023/04/25 06:14:06;;;;;;;;;18.00;18.00;;;;;10.97;66.27;100901.03;5122276;27;46766;-74
2023/04/25 06:16:32;;;;;;;;;19.67;17.00;;;;;10.89;66.45;100887.63;5108520;27;45363;-76
2023/04/25 06:18:57;;;;;;;;;19.33;17.67;;;;;11.00;66.71;100889.28;5108039;27;45292;-74
2023/04/25 06:21:22;;;;;;;;;19.67;18.00;;;;;10.46;66.52;100788.91;5116087;27;45474;-76
2023/04/25 06:23:48;;;;;;;;;17.00;16.00;;;;;11.27;66.40;100913.31;5107591;27;45405;-74
2023/04/25 06:26:13;;;;;;;;;16.33;15.67;;;;;10.45;66.12;100782.75;5090732;27;45471;-75
2023/04/25 06:28:39;;;;;;;;;19.00;18.00;;;;;10.89;65.79;100836.25;5081726;27;45252;-75
2023/04/25 06:31:04;;;;;;;;;24.00;20.33;;;;;9.77;65.43;100665.03;5116928;27;45565;-75
2023/04/25 06:33:30;;;;;;;;;15.67;14.67;;;;;11.27;65.13;100900.00;5120002;27;46029;-73
2023/04/25 06:35:55;;;;;;;;;15.00;14.00;;;;;11.02;65.47;100857.25;5088667;27;45528;-76
2023/04/25 06:38:20;;;;;;;;;14.67;14.67;;;;;11.22;65.20;100891.63;5100205;27;45429;-74
2023/04/25 06:40:46;;;;;;;;;15.00;12.33;;;;;11.23;64.56;100906.63;5100563;27;45586;-75
2023/04/25 06:43:11;;;;;;;;;11.00;11.00;;;;;11.19;63.82;100902.53;5100601;27;46502;-76
2023/04/25 06:45:36;;;;;;;;;11.33;11.33;;;;;11.26;64.03;100900.16;5097450;27;45437;-75
2023/04/25 06:48:02;;;;;;;;;14.67;13.00;;;;;11.24;63.45;100908.28;5116034;27;45157;-78
2023/04/25 06:50:27;;;;;;;;;12.33;11.33;;;;;11.01;63.50;100868.84;5098133;27;45462;-73
2023/04/25 06:52:53;;;;;;;;;11.33;11.33;;;;;11.22;63.61;100904.09;5098900;27;45628;-75
2023/04/25 06:55:18;;;;;;;;;13.00;12.00;;;;;11.09;63.62;100866.31;5098372;27;45487;-75
2023/04/25 06:57:43;;;;;;;;;10.33;9.33;;;;;11.49;63.44;100945.91;5112451;27;45527;-74
2023/04/25 07:00:09;;;;;;;;;9.00;9.00;;;;;11.50;63.34;100960.88;5084117;27;45481;-76
2023/04/25 07:02:35;;;;;;;;;8.00;8.00;;;;;11.02;62.91;100882.03;5120223;27;45430;-73
2023/04/25 07:05:03;;;;;;;;;11.00;10.33;;;;;10.77;62.98;100859.50;5097106;27;46022;-77
2023/04/25 07:07:30;;;;;;;;;10.00;10.00;;;;;11.36;63.66;100959.50;5083904;27;45232;-77
2023/04/25 07:09:55;;;;;;;;;6.67;5.67;;;;;10.74;64.01;100881.06;5095818;27;45606;-75
2023/04/25 07:12:20;;;;;;;;;12.33;12.33;;;;;11.06;63.41;100952.56;5107081;27;45447;-75
2023/04/25 07:14:46;;;;;;;;;15.00;13.33;;;;;11.23;63.57;100975.81;5098211;27;45461;-76
2023/04/25 07:17:11;;;;;;;;;10.00;10.00;;;;;10.94;62.96;100911.13;5080846;27;45516;-76
2023/04/25 07:19:39;;;;;;;;;20.33;16.67;;;;;11.26;63.63;100959.56;5107106;27;45205;-76
2023/04/25 07:22:05;;;;;;;;;20.00;15.00;;;;;11.33;63.56;100959.81;5097913;27;45650;-74
2023/04/25 07:24:30;;;;;;;;;18.33;17.00;;;;;10.46;63.40;100842.91;5098396;27;45284;-76
2023/04/25 07:26:56;;;;;;;;;21.00;20.33;;;;;10.87;64.46;100966.72;5094694;27;45597;-77
2023/04/25 07:29:21;;;;;;;;;23.00;21.00;;;;;10.79;64.89;100963.06;5100401;27;45656;-75
2023/04/25 07:31:47;;;;;;;;;20.67;20.00;;;;;10.82;65.20;100992.91;5117747;27;46563;-74
2023/04/25 07:34:13;;;;;;;;;24.00;22.00;;;;;10.83;64.65;100989.28;5091900;27;45541;-75
2023/04/25 07:36:38;;;;;;;;;28.67;25.00;;;;;10.85;64.95;100991.78;5099617;27;45535;-75
2023/04/25 07:39:03;;;;;;;;;25.00;23.67;;;;;10.71;64.90;100986.88;5112453;27;45672;-73
2023/04/25 07:41:29;;;;;;;;;28.67;26.33;;;;;10.41;65.02;100939.97;5119513;27;46177;-73
2023/04/25 07:43:54;;;;;;;;;19.67;17.67;;;;;10.55;65.12;100959.00;5116623;27;45472;-74
2023/04/25 07:46:19;;;;;;;;;30.33;25.33;;;;;10.50;64.94;100985.19;5115464;27;45536;-74
2023/04/25 07:48:45;;;;;;;;;29.00;26.00;;;;;10.06;65.96;100958.06;5088410;27;45640;-76
2023/04/25 07:51:10;;;;;;;;;33.67;29.00;;;;;10.29;66.09;101013.66;5078987;27;48451;-72
2023/04/25 07:53:37;;;;;;;;;28.33;23.33;;;;;9.23;66.30;100865.38;5081076;27;46486;-75
2023/04/25 07:56:02;;;;;;;;;36.00;30.67;;;;;9.88;66.06;101002.16;5117583;27;45558;-77
2023/04/25 07:58:28;;;;;;;;;24.00;23.33;;;;;10.02;66.08;101041.66;5082723;27;45645;-76
2023/04/25 08:00:53;;;;;;;;;24.67;23.67;;;;;10.06;66.09;101035.09;5104188;27;46287;-74
2023/04/25 08:03:19;;;;;;;;;24.67;23.33;;;;;9.76;65.49;100997.91;5105947;27;45372;-76
2023/04/25 08:05:45;;;;;;;;;25.00;20.67;;;;;9.79;65.25;101018.03;5100106;27;45343;-77
2023/04/25 08:08:11;;;;;;;;;22.67;20.33;;;;;9.82;65.07;101015.97;5085805;27;45404;-76
2023/04/25 08:10:36;;;;;;;;;22.00;22.00;;;;;9.96;65.14;101012.94;5116915;27;45688;-76
2023/04/25 08:13:02;;;;;;;;;19.00;19.00;;;;;10.37;63.93;101051.03;5115655;27;45492;-75
2023/04/25 08:15:27;;;;;;;;;22.33;16.67;;;;;9.87;62.40;100920.81;5101236;27;45381;-73
2023/04/25 08:17:53;;;;;;;;;24.00;21.67;;;;;10.83;61.53;101057.59;5082336;27;45722;-75
2023/04/25 08:20:18;;;;;;;;;22.33;20.00;;;;;10.25;60.09;100940.53;5084376;27;48166;-75
2023/04/25 08:22:43;;;;;;;;;24.33;18.00;;;;;11.30;59.45;101076.38;5086456;27;45300;-74
2023/04/25 08:25:09;;;;;;;;;22.00;18.00;;;;;11.55;58.95;101083.78;5088298;27;45475;-75
2023/04/25 08:27:34;;;;;;;;;16.67;15.00;;;;;10.74;58.43;100920.97;5091632;27;45383;-75
2023/04/25 08:30:00;;;;;;;;;17.33;17.33;;;;;11.02;57.37;100937.88;5102363;27;46623;-77
2023/04/25 08:32:25;;;;;;;;;19.00;16.33;;;;;11.08;57.18;100933.81;5095313;27;45846;-75
2023/04/25 08:34:53;;;;;;;;;16.33;16.33;;;;;11.53;57.30;101003.19;5099689;27;45560;-74
2023/04/25 08:37:19;;;;;;;;;17.00;15.00;;;;;11.52;57.23;101034.31;5101240;27;45326;-74
2023/04/25 08:39:45;;;;;;;;;15.67;15.67;;;;;10.39;57.56;100894.09;5102633;27;46251;-74
2023/04/25 08:42:12;;;;;;;;;16.33;15.00;;;;;11.50;57.27;101078.88;5095098;27;45473;-75
2023/04/25 08:44:37;;;;;;;;;18.33;14.67;;;;;11.30;58.01;101058.59;5117320;27;45466;-74
2023/04/25 08:47:04;;;;;;;;;21.33;17.67;;;;;11.12;57.72;101021.19;5111132;27;45274;-75
2023/04/25 08:49:33;;;;;;;;;17.67;15.00;;;;;11.07;57.12;101023.44;5115730;27;45435;-77
2023/04/25 08:52:05;;;;;;;;;15.67;14.67;;;;;11.32;57.07;101055.78;5083617;27;45686;-75
2023/04/25 08:54:31;;;;;;;;;17.33;14.00;;;;;11.23;57.83;101066.31;5096551;27;45541;-76
2023/04/25 08:57:01;;;;;;;;;15.33;12.67;;;;;10.50;57.49;100955.94;5092421;27;45460;-76
2023/04/25 08:59:27;;;;;;;;;16.33;16.33;;;;;11.32;57.89;101122.31;5100870;27;45719;-76
2023/04/25 09:01:53;;;;;;;;;20.33;18.67;;;;;10.82;58.86;101054.09;5099266;27;46186;-77
2023/04/25 09:04:20;;;;;;;;;14.33;13.33;;;;;9.88;58.33;100889.78;5082737;27;45365;-74
2023/04/25 09:06:46;;;;;;;;;16.00;15.67;;;;;10.64;59.14;101048.59;5100584;27;45239;-74
2023/04/25 09:09:11;;;;;;;;;9.67;8.33;;;;;10.48;59.30;101005.75;5100297;27;45601;-76
2023/04/25 09:11:37;;;;;;;;;16.67;15.67;;;;;10.32;59.72;100994.78;5101955;27;45458;-74
2023/04/25 09:14:12;;;;;;;;;16.00;14.00;;;;;10.57;59.80;101012.88;5081973;27;45542;-76
2023/04/25 09:17:03;;;;;;;;;21.00;17.67;;;;;11.40;59.10;101147.25;5106606;27;45620;-75
2023/04/25 09:19:33;;;;;;;;;17.33;15.33;;;;;11.45;58.81;101144.19;5081479;27;45718;-74
2023/04/25 09:22:00;;;;;;;;;17.67;15.67;;;;;11.30;58.75;101135.78;5091100;27;45520;-74
2023/04/25 09:24:44;;;;;;;;;14.33;11.33;;;;;11.38;59.35;101157.19;5101829;27;45272;-76
2023/04/25 09:27:11;;;;;;;;;23.00;18.00;;;;;11.29;59.26;101112.81;5109339;27;45492;-72
2023/04/25 09:29:38;;;;;;;;;24.00;20.67;;;;;11.83;58.73;101148.69;5094162;27;47757;-74
2023/04/25 09:32:20;;;;;;;;;14.67;14.00;;;;;11.95;57.68;101160.84;5104205;27;45379;-75
2023/04/25 09:34:52;;;;;;;;;24.67;20.00;;;;;11.25;57.46;101048.38;5089684;27;45548;-74
2023/04/25 09:37:28;;;;;;;;;17.67;17.67;;;;;11.98;57.64;101175.72;5099428;27;45569;-75
2023/04/25 09:40:05;;;;;;;;;17.67;14.67;;;;;10.84;57.15;101011.41;5096216;27;47667;-74
2023/04/25 09:42:31;;;;;;;;;20.00;17.00;;;;;11.08;57.21;101038.41;5111696;27;45358;-72
2023/04/25 09:44:58;;;;;;;;;16.00;12.67;;;;;11.00;56.20;101056.88;5095351;27;45517;-75
2023/04/25 09:47:26;;;;;;;;;19.67;18.00;;;;;10.93;56.50;101053.94;5107969;27;45411;-76
2023/04/25 09:49:52;;;;;;;;;14.33;14.00;;;;;11.25;56.54;101108.75;5094523;27;45481;-75
2023/04/25 09:52:20;;;;;;;;;10.33;9.33;;;;;11.08;56.25;101075.66;5098897;27;45716;-79
2023/04/25 09:54:47;;;;;;;;;8.33;8.33;;;;;10.96;56.23;101037.69;5090443;27;45387;-75
2023/04/25 09:57:20;;;;;;;;;11.67;11.67;;;;;10.56;56.87;101000.56;5107911;27;45393;-74
2023/04/25 09:59:48;;;;;;;;;16.67;13.67;;;;;11.70;56.67;101191.56;5097508;27;45339;-74
2023/04/25 10:02:20;;;;;;;;;17.33;15.33;;;;;10.70;56.90;101035.72;5090004;27;45553;-76
2023/04/25 10:04:48;;;;;;;;;13.00;13.00;;;;;10.66;57.11;101030.69;5089827;27;45515;-75
2023/04/25 10:07:14;;;;;;;;;15.67;12.33;;;;;11.00;56.54;101032.94;5089805;27;45421;-75
2023/04/25 10:09:40;;;;;;;;;16.67;11.67;;;;;12.28;55.59;101202.19;5094829;27;47325;-75
2023/04/25 10:12:07;;;;;;;;;15.33;10.67;;;;;11.93;54.98;101106.03;5101582;27;45277;-76
2023/04/25 10:14:33;;;;;;;;;18.33;16.00;;;;;12.65;54.26;101198.72;5102183;27;45482;-74
2023/04/25 10:16:59;;;;;;;;;16.67;14.67;;;;;12.76;53.16;101161.16;5111920;27;45199;-74
2023/04/25 10:19:26;;;;;;;;;15.00;13.00;;;;;13.20;51.69;101206.75;5099348;27;45669;-75
2023/04/25 10:22:16;;;;;;;;;13.33;9.67;;;;;13.40;51.82;101198.47;5116010;27;45398;-76
2023/04/25 10:24:41;;;;;;;;;13.67;12.33;;;;;13.26;50.84;101172.28;5107271;27;45352;-75
2023/04/25 10:27:07;;;;;;;;;15.33;15.00;;;;;12.37;51.24;101057.34;5089005;27;45457;-77
2023/04/25 10:29:32;;;;;;;;;16.00;14.33;;;;;13.07;51.19;101173.22;5114036;27;45949;-75
2023/04/25 10:31:58;;;;;;;;;12.00;12.00;;;;;12.37;51.45;101073.31;5094321;27;45808;-76
2023/04/25 10:34:37;;;;;;;;;11.67;11.33;;;;;11.81;51.96;101044.06;5101042;27;45241;-74
2023/04/25 10:37:03;;;;;;;;;14.67;12.33;;;;;12.47;52.62;101156.81;5113409;27;45454;-79
2023/04/25 10:39:29;;;;;;;;;13.00;10.00;;;;;11.70;53.05;101071.72;5087068;27;48625;-75
2023/04/25 10:41:58;;;;;;;;;16.00;14.67;;;;;12.60;53.00;101206.28;5106928;27;45422;-73
2023/04/25 10:44:28;;;;;;;;;10.00;8.67;;;;;12.46;53.09;101175.63;5090979;27;45448;-75
2023/04/25 10:46:58;;;;;;;;;9.33;8.67;;;;;12.36;52.95;101140.97;5108892;27;45245;-74
2023/04/25 10:49:51;;;;;;;;;13.33;12.00;;;;;12.71;52.59;101203.47;5099251;27;47281;-76
2023/04/25 10:52:28;;;;;;;;;9.33;9.33;;;;;12.78;52.10;101209.88;5097953;27;46207;-77
2023/04/25 10:54:57;;;;;;;;;14.00;12.33;;;;;12.56;52.22;101176.41;5105631;27;45250;-75
2023/04/25 10:57:37;;;;;;;;;11.00;8.00;;;;;12.74;51.85;101203.16;5102402;27;45284;-76
2023/04/25 11:00:10;;;;;;;;;14.00;13.00;;;;;12.16;52.12;101118.03;5080689;27;47857;-73
2023/04/25 11:02:53;;;;;;;;;10.67;10.00;;;;;12.63;51.76;101176.69;5098728;27;45567;-76
2023/04/25 11:05:21;;;;;;;;;14.00;13.00;;;;;12.70;51.93;101233.78;5089171;27;45467;-75
2023/04/25 11:07:51;;;;;;;;;14.00;13.00;;;;;11.98;52.00;101103.78;5107826;27;45257;-77
2023/04/25 11:10:17;;;;;;;;;13.33;12.33;;;;;11.76;52.54;101081.78;5085788;27;47677;-77
2023/04/25 11:12:43;;;;;;;;;12.00;12.00;;;;;12.58;53.33;101218.94;5109253;27;45334;-75